createdAt,value
2023-03-06T05:37:33.071Z,22.25
2023-03-06T05:40:47.493Z,25.30
2023-03-06T05:44:01.563Z,21.23
2023-03-06T05:47:15.664Z,17.00
2023-03-06T05:50:29.909Z,20.77
2023-03-06T05:53:45.450Z,19.25
2023-03-06T05:56:59.535Z,20.40
2023-03-06T06:00:16.165Z,24.75
2023-03-06T06:03:30.427Z,17.80
2023-03-06T06:06:46.603Z,18.45
2023-03-06T06:10:03.739Z,30.33
2023-03-06T06:13:18.508Z,28.50
2023-03-06T06:16:33.269Z,31.20
2023-03-06T06:19:47.694Z,38.78
2023-03-06T06:23:11.263Z,52.50
2023-03-06T06:26:44.570Z,42.30
2023-03-06T06:33:17.144Z,78.10
2023-03-06T06:36:32.961Z,62.15
2023-03-06T06:40:17.086Z,40.08
2023-03-06T06:43:42.410Z,44.33
2023-03-06T06:50:36.815Z,27.52
2023-03-06T06:54:10.475Z,29.92
2023-03-06T06:57:28.018Z,29.52
2023-03-06T07:00:56.576Z,39.25
2023-03-06T07:04:15.768Z,36.83
2023-03-06T07:07:41.971Z,40.85
2023-03-06T07:11:03.119Z,42.60
2023-03-06T07:21:50.822Z,34.20
2023-03-06T07:25:05.610Z,23.02
2023-03-06T07:28:24.853Z,28.80
2023-03-06T07:31:41.657Z,24.27
2023-03-06T07:35:20.947Z,19.02
2023-03-06T07:38:35.284Z,23.42
2023-03-06T07:41:49.604Z,22.30
2023-03-06T07:45:24.273Z,27.13
2023-03-06T07:48:43.067Z,27.62
2023-03-06T07:52:01.650Z,33.75
2023-03-06T07:55:25.340Z,34.08
2023-03-06T07:58:48.123Z,39.95
2023-03-06T08:05:34.687Z,25.20
2023-03-06T08:08:53.362Z,27.75
2023-03-06T08:12:08.677Z,32.58
2023-03-06T08:15:25.565Z,32.10
2023-03-06T08:18:40.062Z,22.67
2023-03-06T08:21:54.190Z,21.65
2023-03-06T08:25:15.747Z,26.33
2023-03-06T08:28:30.185Z,21.65
2023-03-06T08:32:07.044Z,23.73
2023-03-06T08:35:41.557Z,22.17
2023-03-06T08:39:03.635Z,20.20
2023-03-06T08:42:22.809Z,18.42
2023-03-06T08:45:37.100Z,25.02
2023-03-06T08:49:08.690Z,29.92
2023-03-06T08:52:30.790Z,18.23
2023-03-06T08:55:59.262Z,17.55
2023-03-06T08:59:51.255Z,13.00
2023-03-06T09:03:05.885Z,14.30
2023-03-06T09:06:21.394Z,20.10
2023-03-06T09:10:08.795Z,18.53
2023-03-06T09:13:49.818Z,21.98
2023-03-06T09:17:57.001Z,22.92
2023-03-06T09:21:14.706Z,14.52
2023-03-06T09:24:29.359Z,12.48
2023-03-06T09:28:10.440Z,16.60
2023-03-06T09:31:51.686Z,13.50
2023-03-06T09:35:28.577Z,12.55
2023-03-06T09:38:50.176Z,16.27
2023-03-06T09:42:16.021Z,11.18
2023-03-06T09:45:39.860Z,13.40
2023-03-06T09:49:19.688Z,15.77
2023-03-06T09:53:15.407Z,17.08
2023-03-06T09:56:34.781Z,13.18
2023-03-06T10:00:11.812Z,15.70
2023-03-06T10:03:43.054Z,22.67
2023-03-06T10:07:01.274Z,14.40
2023-03-06T10:10:31.653Z,16.60
2023-03-06T10:14:26.256Z,15.25
2023-03-06T10:18:19.897Z,16.73
2023-03-06T10:21:47.135Z,15.45
2023-03-06T10:25:45.622Z,16.35
2023-03-06T10:29:43.684Z,19.23
2023-03-06T10:33:04.631Z,18.25
2023-03-06T10:39:57.018Z,14.95
2023-03-06T10:43:13.441Z,22.23
2023-03-06T10:46:51.306Z,17.12
2023-03-06T10:50:17.457Z,22.95
2023-03-06T10:53:33.978Z,15.93
2023-03-06T10:56:49.372Z,22.45
2023-03-06T11:00:48.489Z,17.12
2023-03-06T11:04:36.564Z,17.40
2023-03-06T11:07:56.198Z,20.90
2023-03-06T11:11:37.102Z,21.55
2023-03-06T11:15:27.686Z,16.12
2023-03-06T11:19:14.940Z,17.73
2023-03-06T11:22:49.194Z,17.90
2023-03-06T11:26:39.741Z,17.90
2023-03-06T11:29:58.966Z,18.10
2023-03-06T11:34:05.795Z,16.85
2023-03-06T11:37:36.319Z,15.65
2023-03-06T11:41:19.174Z,21.30
2023-03-06T11:44:59.928Z,26.45
2023-03-06T11:48:34.486Z,17.40
2023-03-06T11:52:09.327Z,23.80
2023-03-06T11:55:45.273Z,18.05
2023-03-06T11:59:46.870Z,17.35
2023-03-06T12:03:33.374Z,13.65
2023-03-06T12:07:07.895Z,16.33
2023-03-06T12:14:59.185Z,22.95
2023-03-06T12:18:47.734Z,14.30
2023-03-06T12:22:29.135Z,15.18
2023-03-06T12:25:57.689Z,18.27
2023-03-06T12:29:33.916Z,14.60
2023-03-06T12:33:05.016Z,13.13
2023-03-06T12:37:01.752Z,14.87
2023-03-06T12:48:19.479Z,14.50
2023-03-06T12:55:30.049Z,18.95
2023-03-06T12:59:19.389Z,14.75
2023-03-06T13:03:22.843Z,15.95
2023-03-06T13:07:02.852Z,17.75
2023-03-06T13:10:28.107Z,18.20
2023-03-06T13:13:45.440Z,18.10
2023-03-06T13:17:43.142Z,14.77
2023-03-06T13:21:05.967Z,17.37
2023-03-06T13:24:38.778Z,13.80
2023-03-06T13:28:05.032Z,15.10
2023-03-06T13:32:19.401Z,11.82
2023-03-06T13:36:00.490Z,13.35
2023-03-06T13:39:27.970Z,18.00
2023-03-06T13:43:23.009Z,21.40
2023-03-06T13:46:40.951Z,16.95
2023-03-06T13:50:04.425Z,36.42
2023-03-06T13:53:55.219Z,20.25
2023-03-06T13:57:56.677Z,27.83
2023-03-06T14:01:45.589Z,39.85
2023-03-06T14:05:02.738Z,31.30
2023-03-06T14:08:20.745Z,22.70
2023-03-06T14:11:35.220Z,17.87
2023-03-06T14:15:12.078Z,19.48
2023-03-06T14:18:28.338Z,20.55
2023-03-06T14:22:05.440Z,21.42
2023-03-06T14:25:38.627Z,17.70
2023-03-06T14:29:11.475Z,15.93
2023-03-06T14:32:31.971Z,17.95
2023-03-06T14:36:08.810Z,21.12
2023-03-06T14:39:40.846Z,22.92
2023-03-06T14:43:20.823Z,23.10
2023-03-06T14:46:37.345Z,18.02
2023-03-06T14:50:43.226Z,20.65
2023-03-06T14:54:05.038Z,18.92
2023-03-06T14:57:20.177Z,23.95
2023-03-06T15:00:37.103Z,23.23
2023-03-06T15:03:57.055Z,18.52
2023-03-06T15:07:26.005Z,20.45
2023-03-06T15:10:47.044Z,19.73
2023-03-06T15:14:04.684Z,20.23
2023-03-06T15:17:26.464Z,22.60
2023-03-06T15:20:56.109Z,24.58
2023-03-06T15:25:36.195Z,23.75
2023-03-06T15:29:42.311Z,26.02
2023-03-06T15:33:24.253Z,21.67
2023-03-06T15:36:38.981Z,26.65
2023-03-06T15:40:05.451Z,27.00
2023-03-06T15:43:19.748Z,29.80
2023-03-06T15:46:35.468Z,25.60
2023-03-06T15:49:52.240Z,28.55
2023-03-06T15:53:06.660Z,25.37
2023-03-06T15:56:21.449Z,29.65
2023-03-06T15:59:38.449Z,24.87
2023-03-06T16:02:54.438Z,25.30
2023-03-06T16:06:10.082Z,25.35
2023-03-06T16:09:24.443Z,27.40
2023-03-06T16:12:38.726Z,22.70
2023-03-06T16:15:52.938Z,27.92
2023-03-06T16:19:25.197Z,28.10
2023-03-06T16:22:40.447Z,26.55
2023-03-06T16:25:56.154Z,28.87
